sensor_id;sensor_type;location;lat;lon;timestamp;pressure;altitude;pressure_sealevel;temperature;humidity
8641;BME280;4358;42.100;25.222;2024-02-15T00:02:21;100440.53;;;8.50;100.00
8641;BME280;4358;42.100;25.222;2024-02-15T00:04:49;100446.53;;;8.54;100.00
8641;BME280;4358;42.100;25.222;2024-02-15T00:07:16;100429.41;;;8.43;100.00
8641;BME280;4358;42.100;25.222;2024-02-15T00:09:47;100452.91;;;8.49;100.00
8641;BME280;4358;42.100;25.222;2024-02-15T00:12:14;100457.28;;;8.50;100.00
8641;BME280;4358;42.100;25.222;2024-02-15T00:14:41;100451.19;;;8.48;100.00
8641;BME280;4358;42.100;25.222;2024-02-15T00:17:08;100448.47;;;8.50;100.00
8641;BME280;4358;42.100;25.222;2024-02-15T00:19:35;100445.03;;;8.48;100.00
8641;BME280;4358;42.100;25.222;2024-02-15T00:22:03;100448.53;;;8.48;100.00
8641;BME280;4358;42.100;25.222;2024-02-15T00:24:30;100457.28;;;8.50;100.00
8641;BME280;4358;42.100;25.222;2024-02-15T00:26:57;100460.09;;;8.47;100.00
8641;BME280;4358;42.100;25.222;2024-02-15T00:29:24;100452.28;;;8.44;100.00
8641;BME280;4358;42.100;25.222;2024-02-15T00:31:54;100454.94;;;8.44;100.00
8641;BME280;4358;42.100;25.222;2024-02-15T00:34:20;100449.72;;;8.43;100.00
8641;BME280;4358;42.100;25.222;2024-02-15T00:36:47;100451.53;;;8.42;100.00
8641;BME280;4358;42.100;25.222;2024-02-15T00:39:15;100452.44;;;8.41;100.00
8641;BME280;4358;42.100;25.222;2024-02-15T00:41:43;100449.19;;;8.36;100.00
8641;BME280;4358;42.100;25.222;2024-02-15T00:44:10;100455.16;;;8.40;100.00
8641;BME280;4358;42.100;25.222;2024-02-15T00:46:37;100444.03;;;8.33;100.00
8641;BME280;4358;42.100;25.222;2024-02-15T00:49:05;100445.44;;;8.40;100.00
8641;BME280;4358;42.100;25.222;2024-02-15T00:51:32;100447.22;;;8.40;100.00
8641;BME280;4358;42.100;25.222;2024-02-15T00:53:59;100456.03;;;8.40;100.00
8641;BME280;4358;42.100;25.222;2024-02-15T00:56:28;100454.47;;;8.36;100.00
8641;BME280;4358;42.100;25.222;2024-02-15T00:58:55;100454.47;;;8.36;100.00
8641;BME280;4358;42.100;25.222;2024-02-15T01:01:22;100444.66;;;8.38;100.00
8641;BME280;4358;42.100;25.222;2024-02-15T01:03:49;100441.25;;;8.36;100.00
8641;BME280;4358;42.100;25.222;2024-02-15T01:06:16;100442.16;;;8.35;100.00
8641;BME280;4358;42.100;25.222;2024-02-15T01:08:43;100440.81;;;8.27;100.00
8641;BME280;4358;42.100;25.222;2024-02-15T01:11:09;100439.00;;;8.27;100.00
8641;BME280;4358;42.100;25.222;2024-02-15T01:13:38;100439.84;;;8.28;100.00
8641;BME280;4358;42.100;25.222;2024-02-15T01:16:05;100440.03;;;8.25;100.00
8641;BME280;4358;42.100;25.222;2024-02-15T01:18:32;100439.16;;;8.24;100.00
8641;BME280;4358;42.100;25.222;2024-02-15T01:20:59;100444.44;;;8.24;100.00
8641;BME280;4358;42.100;25.222;2024-02-15T01:23:26;100447.09;;;8.24;100.00
8641;BME280;4358;42.100;25.222;2024-02-15T01:25:53;100444.59;;;8.21;100.00
8641;BME280;4358;42.100;25.222;2024-02-15T01:28:20;100441.34;;;8.16;100.00
8641;BME280;4358;42.100;25.222;2024-02-15T01:30:49;100448.25;;;8.19;100.00
8641;BME280;4358;42.100;25.222;2024-02-15T01:33:16;100445.66;;;8.17;100.00
8641;BME280;4358;42.100;25.222;2024-02-15T01:35:43;100445.75;;;8.16;100.00
8641;BME280;4358;42.100;25.222;2024-02-15T01:38:10;100446.13;;;8.08;100.00
8641;BME280;4358;42.100;25.222;2024-02-15T01:40:37;100445.19;;;8.09;100.00
8641;BME280;4358;42.100;25.222;2024-02-15T01:43:04;100441.63;;;8.10;100.00
8641;BME280;4358;42.100;25.222;2024-02-15T01:45:31;100440.88;;;8.06;100.00
8641;BME280;4358;42.100;25.222;2024-02-15T01:48:01;100443.63;;;8.05;100.00
8641;BME280;4358;42.100;25.222;2024-02-15T01:50:29;100443.63;;;8.05;100.00
8641;BME280;4358;42.100;25.222;2024-02-15T01:52:58;100441.22;;;8.00;100.00
8641;BME280;4358;42.100;25.222;2024-02-15T01:55:25;100442.84;;;8.03;100.00
8641;BME280;4358;42.100;25.222;2024-02-15T01:57:52;100440.88;;;8.06;100.00
8641;BME280;4358;42.100;25.222;2024-02-15T02:00:19;100440.19;;;8.03;100.00
8641;BME280;4358;42.100;25.222;2024-02-15T02:02:47;100449.03;;;8.02;100.00
8641;BME280;4358;42.100;25.222;2024-02-15T02:05:16;100459.22;;;7.92;100.00
8641;BME280;4358;42.100;25.222;2024-02-15T02:07:43;100453.06;;;7.92;100.00
8641;BME280;4358;42.100;25.222;2024-02-15T02:10:11;100459.06;;;7.95;100.00
8641;BME280;4358;42.100;25.222;2024-02-15T02:12:40;100452.13;;;7.93;100.00
8641;BME280;4358;42.100;25.222;2024-02-15T02:15:08;100447.78;;;7.92;100.00
8641;BME280;4358;42.100;25.222;2024-02-15T02:17:36;100454.78;;;7.93;100.00
8641;BME280;4358;42.100;25.222;2024-02-15T02:20:06;100458.50;;;7.89;100.00
8641;BME280;4358;42.100;25.222;2024-02-15T02:22:37;100467.50;;;7.85;100.00
8641;BME280;4358;42.100;25.222;2024-02-15T02:25:08;100461.44;;;7.83;100.00
8641;BME280;4358;42.100;25.222;2024-02-15T02:27:36;100464.22;;;7.80;100.00
8641;BME280;4358;42.100;25.222;2024-02-15T02:30:04;100460.91;;;7.75;100.00
8641;BME280;4358;42.100;25.222;2024-02-15T02:32:34;100464.63;;;7.71;100.00
8641;BME280;4358;42.100;25.222;2024-02-15T02:35:02;100469.06;;;7.70;100.00
8641;BME280;4358;42.100;25.222;2024-02-15T02:37:29;100467.38;;;7.69;100.00
8641;BME280;4358;42.100;25.222;2024-02-15T02:39:55;100476.75;;;7.75;100.00
8641;BME280;4358;42.100;25.222;2024-02-15T02:42:24;100476.91;;;7.72;100.00
8641;BME280;4358;42.100;25.222;2024-02-15T02:44:50;100476.97;;;7.70;100.00
8641;BME280;4358;42.100;25.222;2024-02-15T02:47:17;100480.34;;;7.74;100.00
8641;BME280;4358;42.100;25.222;2024-02-15T02:49:44;100476.75;;;7.75;100.00
8641;BME280;4358;42.100;25.222;2024-02-15T02:52:11;100474.28;;;7.72;100.00
8641;BME280;4358;42.100;25.222;2024-02-15T02:54:38;100469.63;;;7.77;100.00
8641;BME280;4358;42.100;25.222;2024-02-15T02:57:05;100474.22;;;7.73;100.00
8641;BME280;4358;42.100;25.222;2024-02-15T02:59:34;100467.44;;;7.68;100.00
8641;BME280;4358;42.100;25.222;2024-02-15T03:02:01;100471.22;;;7.62;100.00
8641;BME280;4358;42.100;25.222;2024-02-15T03:04:30;100474.97;;;7.56;100.00
8641;BME280;4358;42.100;25.222;2024-02-15T03:06:58;100475.25;;;7.50;100.00
8641;BME280;4358;42.100;25.222;2024-02-15T03:09:25;100473.09;;;7.40;100.00
8641;BME280;4358;42.100;25.222;2024-02-15T03:11:55;100474.22;;;7.34;100.00
8641;BME280;4358;42.100;25.222;2024-02-15T03:14:22;100477.13;;;7.28;100.00
8641;BME280;4358;42.100;25.222;2024-02-15T03:16:50;100480.81;;;7.05;100.00
8641;BME280;4358;42.100;25.222;2024-02-15T03:19:17;100472.03;;;6.85;100.00
8641;BME280;4358;42.100;25.222;2024-02-15T03:21:44;100469.09;;;6.70;100.00
8641;BME280;4358;42.100;25.222;2024-02-15T03:24:12;100469.22;;;6.47;100.00
8641;BME280;4358;42.100;25.222;2024-02-15T03:26:38;100474.06;;;6.36;100.00
8641;BME280;4358;42.100;25.222;2024-02-15T03:29:05;100469.41;;;6.21;100.00
8641;BME280;4358;42.100;25.222;2024-02-15T03:31:33;100474.13;;;6.13;100.00
8641;BME280;4358;42.100;25.222;2024-02-15T03:34:03;100471.47;;;6.13;100.00
8641;BME280;4358;42.100;25.222;2024-02-15T03:36:30;100468.78;;;6.14;100.00
8641;BME280;4358;42.100;25.222;2024-02-15T03:38:56;100479.53;;;6.10;100.00
8641;BME280;4358;42.100;25.222;2024-02-15T03:41:27;100472.75;;;6.03;100.00
8641;BME280;4358;42.100;25.222;2024-02-15T03:43:56;100486.28;;;5.93;100.00
8641;BME280;4358;42.100;25.222;2024-02-15T03:46:23;100478.34;;;5.95;100.00
8641;BME280;4358;42.100;25.222;2024-02-15T03:48:51;100478.56;;;5.89;100.00
8641;BME280;4358;42.100;25.222;2024-02-15T03:51:19;100487.50;;;5.85;100.00
8641;BME280;4358;42.100;25.222;2024-02-15T03:53:46;100486.63;;;5.84;100.00
8641;BME280;4358;42.100;25.222;2024-02-15T03:56:14;100484.97;;;5.82;100.00
8641;BME280;4358;42.100;25.222;2024-02-15T03:58:41;100485.13;;;5.77;100.00
8641;BME280;4358;42.100;25.222;2024-02-15T04:01:08;100489.50;;;5.78;100.00
8641;BME280;4358;42.100;25.222;2024-02-15T04:03:35;100488.59;;;5.79;100.00
8641;BME280;4358;42.100;25.222;2024-02-15T04:06:02;100497.63;;;5.72;100.00
8641;BME280;4358;42.100;25.222;2024-02-15T04:08:31;100482.84;;;5.68;100.00
8641;BME280;4358;42.100;25.222;2024-02-15T04:10:58;100493.94;;;5.76;100.00
8641;BME280;4358;42.100;25.222;2024-02-15T04:13:25;100498.06;;;5.60;100.00
8641;BME280;4358;42.100;25.222;2024-02-15T04:15:51;100498.41;;;5.51;100.00
8641;BME280;4358;42.100;25.222;2024-02-15T04:18:18;100498.31;;;5.54;100.00
8641;BME280;4358;42.100;25.222;2024-02-15T04:20:45;100496.38;;;5.59;100.00
8641;BME280;4358;42.100;25.222;2024-02-15T04:23:14;100492.88;;;5.59;100.00
8641;BME280;4358;42.100;25.222;2024-02-15T04:25:42;100499.09;;;5.56;100.00
8641;BME280;4358;42.100;25.222;2024-02-15T04:28:09;100497.50;;;5.52;100.00
8641;BME280;4358;42.100;25.222;2024-02-15T04:30:36;100495.00;;;5.49;100.00
8641;BME280;4358;42.100;25.222;2024-02-15T04:33:06;100497.78;;;5.44;100.00
8641;BME280;4358;42.100;25.222;2024-02-15T04:35:33;100501.78;;;5.31;100.00
8641;BME280;4358;42.100;25.222;2024-02-15T04:38:01;100504.25;;;5.36;100.00
8641;BME280;4358;42.100;25.222;2024-02-15T04:40:29;100504.16;;;5.39;100.00
8641;BME280;4358;42.100;25.222;2024-02-15T04:42:57;100505.78;;;5.41;100.00
8641;BME280;4358;42.100;25.222;2024-02-15T04:45:24;100512.13;;;5.36;100.00
8641;BME280;4358;42.100;25.222;2024-02-15T04:47:51;100507.53;;;5.18;100.00
8641;BME280;4358;42.100;25.222;2024-02-15T04:50:19;100514.47;;;5.20;100.00
8641;BME280;4358;42.100;25.222;2024-02-15T04:52:46;100517.47;;;5.09;100.00
8641;BME280;4358;42.100;25.222;2024-02-15T04:55:15;100512.41;;;5.03;100.00
8641;BME280;4358;42.100;25.222;2024-02-15T04:57:43;100513.81;;;5.13;100.00
8641;BME280;4358;42.100;25.222;2024-02-15T05:00:15;100525.31;;;5.11;100.00
8641;BME280;4358;42.100;25.222;2024-02-15T05:02:45;100527.56;;;5.22;100.00
8641;BME280;4358;42.100;25.222;2024-02-15T05:05:12;100531.75;;;5.27;100.00
8641;BME280;4358;42.100;25.222;2024-02-15T05:07:38;100531.31;;;5.15;100.00
8641;BME280;4358;42.100;25.222;2024-02-15T05:10:06;100529.59;;;5.13;100.00
8641;BME280;4358;42.100;25.222;2024-02-15T05:12:34;100528.84;;;5.10;100.00
8641;BME280;4358;42.100;25.222;2024-02-15T05:15:01;100533.94;;;5.15;100.00
8641;BME280;4358;42.100;25.222;2024-02-15T05:17:37;100538.09;;;5.22;100.00
8641;BME280;4358;42.100;25.222;2024-02-15T05:20:07;100544.00;;;5.28;100.00
8641;BME280;4358;42.100;25.222;2024-02-15T05:22:37;100536.22;;;5.25;100.00
8641;BME280;4358;42.100;25.222;2024-02-15T05:25:06;100537.88;;;5.28;100.00
8641;BME280;4358;42.100;25.222;2024-02-15T05:27:33;100537.88;;;5.28;100.00
8641;BME280;4358;42.100;25.222;2024-02-15T05:30:02;100542.06;;;5.33;100.00
8641;BME280;4358;42.100;25.222;2024-02-15T05:32:33;100547.91;;;5.41;100.00
8641;BME280;4358;42.100;25.222;2024-02-15T05:35:09;100548.44;;;5.51;100.00
8641;BME280;4358;42.100;25.222;2024-02-15T05:37:37;100548.06;;;5.62;100.00
8641;BME280;4358;42.100;25.222;2024-02-15T05:40:05;100550.59;;;5.65;100.00
8641;BME280;4358;42.100;25.222;2024-02-15T05:42:32;100555.56;;;5.72;100.00
8641;BME280;4358;42.100;25.222;2024-02-15T05:45:30;100561.34;;;5.82;100.00
8641;BME280;4358;42.100;25.222;2024-02-15T05:47:59;100566.63;;;5.82;100.00
8641;BME280;4358;42.100;25.222;2024-02-15T05:50:28;100569.53;;;5.74;100.00
8641;BME280;4358;42.100;25.222;2024-02-15T05:52:55;100565.13;;;5.75;100.00
8641;BME280;4358;42.100;25.222;2024-02-15T05:55:23;100566.16;;;5.95;100.00
8641;BME280;4358;42.100;25.222;2024-02-15T05:57:52;100567.28;;;5.88;100.00
8641;BME280;4358;42.100;25.222;2024-02-15T06:00:20;100567.38;;;6.09;100.00
8641;BME280;4358;42.100;25.222;2024-02-15T06:02:47;100573.34;;;6.14;100.00
8641;BME280;4358;42.100;25.222;2024-02-15T06:05:14;100574.84;;;6.21;100.00
8641;BME280;4358;42.100;25.222;2024-02-15T06:07:43;100576.34;;;6.28;100.00
8641;BME280;4358;42.100;25.222;2024-02-15T06:10:11;100583.94;;;6.35;100.00
8641;BME280;4358;42.100;25.222;2024-02-15T06:12:39;100585.19;;;6.49;100.00
8641;BME280;4358;42.100;25.222;2024-02-15T06:15:07;100588.56;;;6.74;100.00
8641;BME280;4358;42.100;25.222;2024-02-15T06:17:40;100589.94;;;6.82;100.00
8641;BME280;4358;42.100;25.222;2024-02-15T06:20:11;100597.44;;;6.93;100.00
8641;BME280;4358;42.100;25.222;2024-02-15T06:22:39;100594.50;;;7.01;100.00
8641;BME280;4358;42.100;25.222;2024-02-15T06:25:08;100598.47;;;7.11;100.00
8641;BME280;4358;42.100;25.222;2024-02-15T06:27:35;100598.72;;;7.25;100.00
8641;BME280;4358;42.100;25.222;2024-02-15T06:30:07;100606.41;;;7.31;100.00
8641;BME280;4358;42.100;25.222;2024-02-15T06:32:52;100598.22;;;7.37;100.00
8641;BME280;4358;42.100;25.222;2024-02-15T06:35:33;100608.03;;;7.34;100.00
8641;BME280;4358;42.100;25.222;2024-02-15T06:38:23;100608.44;;;7.24;100.00
8641;BME280;4358;42.100;25.222;2024-02-15T06:41:09;100611.88;;;7.27;100.00
8641;BME280;4358;42.100;25.222;2024-02-15T06:43:35;100615.75;;;7.18;100.00
8641;BME280;4358;42.100;25.222;2024-02-15T06:46:03;100613.97;;;7.18;100.00
8641;BME280;4358;42.100;25.222;2024-02-15T06:48:32;100614.63;;;7.23;100.00
8641;BME280;4358;42.100;25.222;2024-02-15T06:50:59;100625.13;;;7.25;100.00
8641;BME280;4358;42.100;25.222;2024-02-15T06:53:26;100622.19;;;7.33;100.00
8641;BME280;4358;42.100;25.222;2024-02-15T06:55:53;100616.63;;;7.39;100.00
8641;BME280;4358;42.100;25.222;2024-02-15T06:58:21;100620.31;;;7.35;100.00
8641;BME280;4358;42.100;25.222;2024-02-15T07:00:48;100617.38;;;7.42;100.00
8641;BME280;4358;42.100;25.222;2024-02-15T07:03:15;100628.50;;;7.49;100.00
8641;BME280;4358;42.100;25.222;2024-02-15T07:05:43;100620.53;;;7.50;100.00
8641;BME280;4358;42.100;25.222;2024-02-15T07:08:10;100624.63;;;7.57;100.00
8641;BME280;4358;42.100;25.222;2024-02-15T07:10:38;100617.38;;;7.62;100.00
8641;BME280;4358;42.100;25.222;2024-02-15T07:13:05;100620.59;;;7.69;100.00
8641;BME280;4358;42.100;25.222;2024-02-15T07:15:34;100622.91;;;7.77;100.00
8641;BME280;4358;42.100;25.222;2024-02-15T07:18:04;100619.19;;;7.81;100.00
8641;BME280;4358;42.100;25.222;2024-02-15T07:20:32;100624.75;;;7.95;100.00
8641;BME280;4358;42.100;25.222;2024-02-15T07:22:59;100622.44;;;8.06;100.00
8641;BME280;4358;42.100;25.222;2024-02-15T07:25:25;100622.31;;;8.09;100.00
8641;BME280;4358;42.100;25.222;2024-02-15T07:27:52;100632.25;;;8.23;100.00
8641;BME280;4358;42.100;25.222;2024-02-15T07:30:19;100627.16;;;8.38;100.00
8641;BME280;4358;42.100;25.222;2024-02-15T07:32:48;100623.16;;;8.48;100.00
8641;BME280;4358;42.100;25.222;2024-02-15T07:35:15;100626.03;;;8.63;100.00
8641;BME280;4358;42.100;25.222;2024-02-15T07:37:51;100629.66;;;8.79;100.00
8641;BME280;4358;42.100;25.222;2024-02-15T07:40:21;100632.09;;;9.01;100.00
8641;BME280;4358;42.100;25.222;2024-02-15T07:42:48;100638.59;;;9.12;100.00
8641;BME280;4358;42.100;25.222;2024-02-15T07:45:15;100624.88;;;9.21;100.00
8641;BME280;4358;42.100;25.222;2024-02-15T07:47:43;100626.63;;;9.40;100.00
8641;BME280;4358;42.100;25.222;2024-02-15T07:50:16;100623.66;;;9.46;100.00
8641;BME280;4358;42.100;25.222;2024-02-15T07:52:46;100640.31;;;9.65;100.00
8641;BME280;4358;42.100;25.222;2024-02-15T07:55:13;100631.81;;;9.75;100.00
8641;BME280;4358;42.100;25.222;2024-02-15T07:57:40;100619.50;;;9.74;100.00
8641;BME280;4358;42.100;25.222;2024-02-15T08:00:07;100620.03;;;9.81;100.00
8641;BME280;4358;42.100;25.222;2024-02-15T08:02:36;100632.19;;;9.85;100.00
8641;BME280;4358;42.100;25.222;2024-02-15T08:05:06;100619.56;;;9.90;100.00
8641;BME280;4358;42.100;25.222;2024-02-15T08:07:37;100638.41;;;10.01;100.00
8641;BME280;4358;42.100;25.222;2024-02-15T08:10:06;100638.81;;;9.94;100.00
8641;BME280;4358;42.100;25.222;2024-02-15T08:12:38;100620.78;;;10.00;100.00
8641;BME280;4358;42.100;25.222;2024-02-15T08:15:06;100620.00;;;9.98;100.00
8641;BME280;4358;42.100;25.222;2024-02-15T08:17:38;100624.38;;;9.99;99.71
8641;BME280;4358;42.100;25.222;2024-02-15T08:20:07;100620.91;;;10.14;100.00
8641;BME280;4358;42.100;25.222;2024-02-15T08:22:34;100621.00;;;10.13;98.77
8641;BME280;4358;42.100;25.222;2024-02-15T08:25:02;100615.28;;;10.20;99.29
8641;BME280;4358;42.100;25.222;2024-02-15T08:27:30;100618.81;;;10.37;98.97
8641;BME280;4358;42.100;25.222;2024-02-15T08:29:59;100624.06;;;10.54;99.49
8641;BME280;4358;42.100;25.222;2024-02-15T08:32:25;100609.94;;;10.53;98.40
8641;BME280;4358;42.100;25.222;2024-02-15T08:34:52;100620.88;;;10.63;97.44
8641;BME280;4358;42.100;25.222;2024-02-15T08:37:19;100614.31;;;10.70;98.40
8641;BME280;4358;42.100;25.222;2024-02-15T08:39:46;100615.94;;;10.73;97.52
8641;BME280;4358;42.100;25.222;2024-02-15T08:42:14;100619.00;;;10.81;97.46
8641;BME280;4358;42.100;25.222;2024-02-15T08:44:40;100620.66;;;10.83;96.32
8641;BME280;4358;42.100;25.222;2024-02-15T08:47:07;100620.19;;;10.91;97.74
8641;BME280;4358;42.100;25.222;2024-02-15T08:49:34;100617.63;;;10.89;97.36
8641;BME280;4358;42.100;25.222;2024-02-15T08:52:01;100605.13;;;10.91;97.13
8641;BME280;4358;42.100;25.222;2024-02-15T08:54:29;100585.44;;;10.80;96.77
8641;BME280;4358;42.100;25.222;2024-02-15T08:56:58;100617.47;;;10.92;94.90
8641;BME280;4358;42.100;25.222;2024-02-15T08:59:26;100606.56;;;10.97;95.45
8641;BME280;4358;42.100;25.222;2024-02-15T09:01:55;100604.25;;;11.07;95.35
8641;BME280;4358;42.100;25.222;2024-02-15T09:04:22;100603.66;;;11.01;95.16
8641;BME280;4358;42.100;25.222;2024-02-15T09:06:50;100603.88;;;11.13;96.19
8641;BME280;4358;42.100;25.222;2024-02-15T09:09:17;100596.50;;;11.18;96.66
8641;BME280;4358;42.100;25.222;2024-02-15T09:11:44;100603.00;;;11.28;94.78
8641;BME280;4358;42.100;25.222;2024-02-15T09:14:11;100601.13;;;11.30;94.29
8641;BME280;4358;42.100;25.222;2024-02-15T09:16:39;100604.22;;;11.22;94.83
8641;BME280;4358;42.100;25.222;2024-02-15T09:19:06;100594.66;;;11.34;94.80
8641;BME280;4358;42.100;25.222;2024-02-15T09:21:32;100591.66;;;11.40;94.18
8641;BME280;4358;42.100;25.222;2024-02-15T09:24:00;100595.19;;;11.55;93.73
8641;BME280;4358;42.100;25.222;2024-02-15T09:26:27;100584.84;;;11.50;93.25
8641;BME280;4358;42.100;25.222;2024-02-15T09:28:54;100576.31;;;11.59;94.33
8641;BME280;4358;42.100;25.222;2024-02-15T09:31:21;100584.31;;;11.73;93.61
8641;BME280;4358;42.100;25.222;2024-02-15T09:33:51;100599.34;;;11.74;92.04
8641;BME280;4358;42.100;25.222;2024-02-15T09:36:18;100580.75;;;11.59;92.62
8641;BME280;4358;42.100;25.222;2024-02-15T09:38:45;100576.31;;;11.59;93.37
8641;BME280;4358;42.100;25.222;2024-02-15T09:41:12;100574.00;;;11.53;93.01
8641;BME280;4358;42.100;25.222;2024-02-15T09:43:39;100572.78;;;11.59;93.31
8641;BME280;4358;42.100;25.222;2024-02-15T09:46:06;100575.72;;;11.68;93.01
8641;BME280;4358;42.100;25.222;2024-02-15T09:48:34;100577.25;;;11.72;92.63
8641;BME280;4358;42.100;25.222;2024-02-15T09:51:03;100572.28;;;11.82;92.75
8641;BME280;4358;42.100;25.222;2024-02-15T09:53:30;100566.75;;;11.99;92.91
8641;BME280;4358;42.100;25.222;2024-02-15T09:55:59;100562.84;;;12.05;92.22
8641;BME280;4358;42.100;25.222;2024-02-15T09:58:30;100551.44;;;12.17;92.15
8641;BME280;4358;42.100;25.222;2024-02-15T10:01:00;100558.09;;;12.24;91.46
8641;BME280;4358;42.100;25.222;2024-02-15T10:03:32;100567.22;;;12.20;91.43
8641;BME280;4358;42.100;25.222;2024-02-15T10:06:00;100540.72;;;12.18;90.67
8641;BME280;4358;42.100;25.222;2024-02-15T10:08:29;100553.66;;;12.24;91.22
8641;BME280;4358;42.100;25.222;2024-02-15T10:11:05;100538.91;;;12.19;90.75
8641;BME280;4358;42.100;25.222;2024-02-15T10:13:33;100537.00;;;12.35;91.67
8641;BME280;4358;42.100;25.222;2024-02-15T10:16:14;100532.25;;;12.53;90.48
8641;BME280;4358;42.100;25.222;2024-02-15T10:18:41;100531.66;;;12.62;90.32
8641;BME280;4358;42.100;25.222;2024-02-15T10:21:08;100526.69;;;12.70;90.82
8641;BME280;4358;42.100;25.222;2024-02-15T10:23:38;100525.69;;;12.58;89.61
8641;BME280;4358;42.100;25.222;2024-02-15T10:26:19;100528.81;;;12.65;90.19
8641;BME280;4358;42.100;25.222;2024-02-15T10:29:04;100532.09;;;12.56;88.98
8641;BME280;4358;42.100;25.222;2024-02-15T10:31:32;100533.28;;;12.64;89.00
8641;BME280;4358;42.100;25.222;2024-02-15T10:34:02;100527.25;;;12.75;88.96
8641;BME280;4358;42.100;25.222;2024-02-15T10:36:30;100540.63;;;13.00;88.25
8641;BME280;4358;42.100;25.222;2024-02-15T10:39:16;100527.78;;;13.07;87.44
8641;BME280;4358;42.100;25.222;2024-02-15T10:41:47;100521.50;;;13.08;87.75
8641;BME280;4358;42.100;25.222;2024-02-15T10:44:16;100521.38;;;13.09;87.81
8641;BME280;4358;42.100;25.222;2024-02-15T10:46:47;100511.22;;;13.29;87.16
8641;BME280;4358;42.100;25.222;2024-02-15T10:49:17;100515.81;;;13.39;87.69
8641;BME280;4358;42.100;25.222;2024-02-15T10:51:48;100524.63;;;13.40;86.75
8641;BME280;4358;42.100;25.222;2024-02-15T10:54:27;100493.06;;;13.21;86.57
8641;BME280;4358;42.100;25.222;2024-02-15T10:57:03;100500.53;;;13.16;88.28
8641;BME280;4358;42.100;25.222;2024-02-15T10:59:34;100498.16;;;13.24;87.68
8641;BME280;4358;42.100;25.222;2024-02-15T11:02:18;100502.44;;;13.14;87.99
8641;BME280;4358;42.100;25.222;2024-02-15T11:04:52;100492.66;;;13.27;87.86
8641;BME280;4358;42.100;25.222;2024-02-15T11:07:24;100503.94;;;13.18;87.26
8641;BME280;4358;42.100;25.222;2024-02-15T11:09:53;100494.97;;;13.19;86.78
8641;BME280;4358;42.100;25.222;2024-02-15T11:12:22;100495.94;;;13.18;87.77
8641;BME280;4358;42.100;25.222;2024-02-15T11:14:50;100500.09;;;13.22;87.25
8641;BME280;4358;42.100;25.222;2024-02-15T11:17:47;100496.50;;;13.23;87.84
8641;BME280;4358;42.100;25.222;2024-02-15T11:20:46;100490.06;;;13.26;87.15
8641;BME280;4358;42.100;25.222;2024-02-15T11:23:26;100491.75;;;13.14;87.81
8641;BME280;4358;42.100;25.222;2024-02-15T11:25:55;100484.31;;;13.19;88.12
8641;BME280;4358;42.100;25.222;2024-02-15T11:28:43;100485.69;;;13.25;87.84
8641;BME280;4358;42.100;25.222;2024-02-15T11:31:54;100485.06;;;13.46;86.54
8641;BME280;4358;42.100;25.222;2024-02-15T11:34:43;100474.50;;;13.57;86.50
8641;BME280;4358;42.100;25.222;2024-02-15T11:40:13;100471.19;;;13.67;85.31
8641;BME280;4358;42.100;25.222;2024-02-15T11:42:41;100484.66;;;13.52;86.10
8641;BME280;4358;42.100;25.222;2024-02-15T11:45:09;100470.66;;;13.62;86.17
8641;BME280;4358;42.100;25.222;2024-02-15T11:47:37;100459.13;;;13.61;85.99
8641;BME280;4358;42.100;25.222;2024-02-15T11:50:08;100471.53;;;13.37;86.18
8641;BME280;4358;42.100;25.222;2024-02-15T11:52:38;100467.56;;;13.30;86.36
8641;BME280;4358;42.100;25.222;2024-02-15T11:55:05;100471.31;;;13.27;86.37
8641;BME280;4358;42.100;25.222;2024-02-15T11:57:36;100475.78;;;13.14;86.64
8641;BME280;4358;42.100;25.222;2024-02-15T12:00:21;100466.81;;;13.15;87.15
8641;BME280;4358;42.100;25.222;2024-02-15T12:03:05;100468.13;;;13.22;86.83
8641;BME280;4358;42.100;25.222;2024-02-15T12:05:49;100475.97;;;13.11;87.06
8641;BME280;4358;42.100;25.222;2024-02-15T12:08:34;100470.81;;;12.95;87.06
8641;BME280;4358;42.100;25.222;2024-02-15T12:11:19;100464.44;;;12.98;87.26
8641;BME280;4358;42.100;25.222;2024-02-15T12:14:03;100442.50;;;12.67;87.61
8641;BME280;4358;42.100;25.222;2024-02-15T12:17:00;100471.75;;;12.82;88.04
8641;BME280;4358;42.100;25.222;2024-02-15T12:19:44;100474.00;;;12.88;87.48
8641;BME280;4358;42.100;25.222;2024-02-15T12:22:11;100464.84;;;12.92;87.73
8641;BME280;4358;42.100;25.222;2024-02-15T12:24:38;100468.03;;;12.84;87.57
8641;BME280;4358;42.100;25.222;2024-02-15T12:27:05;100472.09;;;12.90;87.35
8641;BME280;4358;42.100;25.222;2024-02-15T12:29:32;100478.38;;;12.89;87.62
8641;BME280;4358;42.100;25.222;2024-02-15T12:32:02;100472.63;;;12.82;88.12
8641;BME280;4358;42.100;25.222;2024-02-15T12:34:29;100475.50;;;12.92;87.75
8641;BME280;4358;42.100;25.222;2024-02-15T12:37:05;100471.47;;;12.99;87.55
8641;BME280;4358;42.100;25.222;2024-02-15T12:39:34;100475.75;;;13.01;87.48
8641;BME280;4358;42.100;25.222;2024-02-15T12:42:02;100474.97;;;12.99;86.98
8641;BME280;4358;42.100;25.222;2024-02-15T12:44:29;100468.91;;;13.10;86.84
8641;BME280;4358;42.100;25.222;2024-02-15T12:46:58;100472.75;;;13.06;87.36
8641;BME280;4358;42.100;25.222;2024-02-15T12:49:30;100474.47;;;13.07;86.96
8641;BME280;4358;42.100;25.222;2024-02-15T12:52:35;100472.00;;;13.04;87.60
8641;BME280;4358;42.100;25.222;2024-02-15T12:55:13;100469.78;;;12.98;87.49
8641;BME280;4358;42.100;25.222;2024-02-15T12:57:41;100471.69;;;13.08;87.39
8641;BME280;4358;42.100;25.222;2024-02-15T13:00:11;100465.13;;;13.14;86.32
8641;BME280;4358;42.100;25.222;2024-02-15T13:02:40;100469.47;;;13.02;86.28
8641;BME280;4358;42.100;25.222;2024-02-15T13:05:08;100469.16;;;13.07;86.50
8641;BME280;4358;42.100;25.222;2024-02-15T13:07:36;100466.47;;;13.07;86.77
8641;BME280;4358;42.100;25.222;2024-02-15T13:10:03;100471.09;;;13.30;86.49
8641;BME280;4358;42.100;25.222;2024-02-15T13:12:32;100469.94;;;13.34;86.45
8641;BME280;4358;42.100;25.222;2024-02-15T13:15:02;100463.66;;;13.23;86.27
8641;BME280;4358;42.100;25.222;2024-02-15T13:17:30;100475.09;;;13.10;86.04